AEZ2601 LICJ-LIRF
Flight info
| Callsign | AEZ2601 |
|---|---|
| Flight time | 0h 52m |
| Altitude | 32000 |
| Route | LURON DCT DORAS DCT BEROL DCT PNZ DCT NEKPI DCT LAT |
| Aircraft | B738/M-SDE2E3FGHIRWXY/LB1 |
Departure
| Time | 2026-05-04 09:01 |
|---|---|
| Airport | Falcone–Borsellino Airport (LICJ) |
Arrival
| Time | 2026-05-04 09:53 |
|---|---|
| Airport | Rome–Fiumicino Leonardo da Vinci International Airport (LIRF) |
| Time | Latitude | Longitude | Altitude | Speed | Heading |
|---|---|---|---|---|---|
| 2026-05-04 08:38 | 38.18516 | 13.10501 | 47 ft | 0 kts | 324° |
| 2026-05-04 08:50 | 38.18463 | 13.10590 | 47 ft | 4 kts | 248° |
| 2026-05-04 08:50 | 38.18464 | 13.10595 | 44 ft | 1 kts | 246° |
| 2026-05-04 08:52 | 38.18462 | 13.10588 | 45 ft | 3 kts | 246° |
| 2026-05-04 08:53 | 38.18424 | 13.10524 | 48 ft | 15 kts | 218° |
| 2026-05-04 08:54 | 38.17807 | 13.09186 | 40 ft | 22 kts | 245° |
| 2026-05-04 08:55 | 38.17743 | 13.08993 | 41 ft | 25 kts | 240° |
| 2026-05-04 08:55 | 38.17608 | 13.08833 | 41 ft | 28 kts | 216° |
| 2026-05-04 08:55 | 38.17428 | 13.08710 | 41 ft | 31 kts | 199° |
| 2026-05-04 08:55 | 38.17221 | 13.08622 | 43 ft | 32 kts | 198° |
| 2026-05-04 08:57 | 38.17226 | 13.08903 | 45 ft | 127 kts | 23° |
| 2026-05-04 09:01 | 38.39128 | 13.13388 | 10615 ft | 302 kts | 357° |
| 2026-05-04 09:01 | 38.41322 | 13.13302 | 10823 ft | 330 kts | 357° |
| 2026-05-04 09:01 | 38.43712 | 13.13210 | 11021 ft | 356 kts | 357° |
| 2026-05-04 09:01 | 38.46246 | 13.13115 | 11416 ft | 372 kts | 357° |
| 2026-05-04 09:02 | 38.48861 | 13.13018 | 12105 ft | 378 kts | 357° |
| 2026-05-04 09:02 | 38.51493 | 13.12920 | 12896 ft | 381 kts | 356° |
| 2026-05-04 09:02 | 38.54161 | 13.12819 | 13684 ft | 385 kts | 356° |
| 2026-05-04 09:02 | 38.56847 | 13.12716 | 14382 ft | 389 kts | 356° |
| 2026-05-04 09:03 | 38.59535 | 13.12613 | 15074 ft | 392 kts | 356° |
| 2026-05-04 09:03 | 38.62263 | 13.12508 | 15826 ft | 394 kts | 356° |
| 2026-05-04 09:03 | 38.65018 | 13.12403 | 16551 ft | 396 kts | 356° |
| 2026-05-04 09:03 | 38.67779 | 13.12297 | 17236 ft | 399 kts | 356° |
| 2026-05-04 09:04 | 38.70561 | 13.12190 | 17914 ft | 402 kts | 356° |
| 2026-05-04 09:04 | 38.73377 | 13.12081 | 18559 ft | 405 kts | 356° |
| 2026-05-04 09:04 | 38.76203 | 13.11973 | 19110 ft | 409 kts | 356° |
| 2026-05-04 09:04 | 38.79066 | 13.11863 | 19649 ft | 413 kts | 356° |
| 2026-05-04 09:05 | 38.81943 | 13.11752 | 20179 ft | 416 kts | 356° |
| 2026-05-04 09:05 | 38.84820 | 13.11641 | 20705 ft | 420 kts | 356° |
| 2026-05-04 09:05 | 38.87744 | 13.11505 | 21223 ft | 423 kts | 355° |
| 2026-05-04 09:05 | 38.90701 | 13.11302 | 21726 ft | 426 kts | 354° |
| 2026-05-04 09:06 | 38.93666 | 13.11068 | 22216 ft | 430 kts | 353° |
| 2026-05-04 09:07 | 39.15030 | 13.09407 | 25295 ft | 447 kts | 353° |
| 2026-05-04 09:08 | 39.18147 | 13.09172 | 25714 ft | 448 kts | 353° |
| 2026-05-04 09:08 | 39.21259 | 13.08938 | 26108 ft | 450 kts | 353° |
| 2026-05-04 09:08 | 39.24395 | 13.08700 | 26490 ft | 451 kts | 353° |
| 2026-05-04 09:08 | 39.27530 | 13.08463 | 26855 ft | 453 kts | 353° |
| 2026-05-04 09:09 | 39.30689 | 13.08223 | 27213 ft | 455 kts | 353° |
| 2026-05-04 09:09 | 39.33845 | 13.07984 | 27573 ft | 456 kts | 353° |
| 2026-05-04 09:09 | 39.36977 | 13.07746 | 28001 ft | 455 kts | 352° |
| 2026-05-04 09:09 | 39.40121 | 13.07509 | 28572 ft | 452 kts | 352° |
| 2026-05-04 09:10 | 39.43250 | 13.07273 | 29196 ft | 447 kts | 352° |
| 2026-05-04 09:10 | 39.46337 | 13.07039 | 29792 ft | 444 kts | 352° |
| 2026-05-04 09:10 | 39.49424 | 13.06803 | 30185 ft | 444 kts | 352° |
| 2026-05-04 09:11 | 39.55629 | 13.06325 | 30195 ft | 448 kts | 352° |
| 2026-05-04 09:11 | 39.61810 | 13.05856 | 30184 ft | 442 kts | 352° |
| 2026-05-04 09:12 | 39.67922 | 13.05384 | 30189 ft | 444 kts | 352° |
| 2026-05-04 09:14 | 39.92645 | 13.03470 | 30193 ft | 447 kts | 352° |
| 2026-05-04 09:14 | 39.98858 | 13.02988 | 30192 ft | 447 kts | 352° |
| 2026-05-04 09:15 | 40.05074 | 13.02504 | 30189 ft | 448 kts | 352° |
| 2026-05-04 09:15 | 40.11292 | 13.02020 | 30194 ft | 448 kts | 352° |
| 2026-05-04 09:17 | 40.39256 | 12.99826 | 30193 ft | 449 kts | 353° |
| 2026-05-04 09:18 | 40.45496 | 12.99334 | 30194 ft | 449 kts | 353° |
| 2026-05-04 09:18 | 40.51703 | 12.98843 | 30197 ft | 450 kts | 353° |
| 2026-05-04 09:19 | 40.57964 | 12.98347 | 30194 ft | 451 kts | 353° |
| 2026-05-04 09:19 | 40.64238 | 12.97849 | 30194 ft | 452 kts | 353° |
| 2026-05-04 09:20 | 40.70523 | 12.97350 | 30192 ft | 453 kts | 353° |
| 2026-05-04 09:20 | 40.76808 | 12.96849 | 30193 ft | 454 kts | 353° |
| 2026-05-04 09:21 | 40.83080 | 12.96349 | 30193 ft | 455 kts | 353° |
| 2026-05-04 09:21 | 40.89411 | 12.95866 | 30199 ft | 457 kts | 355° |
| 2026-05-04 09:22 | 40.95660 | 12.96852 | 30191 ft | 440 kts | 9° |
| 2026-05-04 09:22 | 40.98590 | 12.97768 | 30187 ft | 424 kts | 10° |
| 2026-05-04 09:22 | 41.01397 | 12.98664 | 30181 ft | 408 kts | 10° |
| 2026-05-04 09:23 | 41.04081 | 12.99509 | 30181 ft | 394 kts | 9° |
| 2026-05-04 09:23 | 41.06698 | 13.00316 | 30179 ft | 380 kts | 9° |
| 2026-05-04 09:23 | 41.09237 | 13.01086 | 30180 ft | 367 kts | 9° |
| 2026-05-04 09:23 | 41.11679 | 13.01819 | 30189 ft | 354 kts | 9° |
| 2026-05-04 09:25 | 41.27106 | 13.06430 | 28779 ft | 335 kts | 9° |
| 2026-05-04 09:25 | 41.29445 | 13.07130 | 27790 ft | 353 kts | 9° |
| 2026-05-04 09:26 | 41.31917 | 13.07663 | 26665 ft | 369 kts | 358° |
| 2026-05-04 09:26 | 41.34506 | 13.07201 | 25448 ft | 384 kts | 340° |
| 2026-05-04 09:26 | 41.36961 | 13.05666 | 24237 ft | 400 kts | 328° |
| 2026-05-04 09:26 | 41.39390 | 13.03704 | 22923 ft | 415 kts | 326° |
| 2026-05-04 09:27 | 41.41833 | 13.01665 | 21793 ft | 425 kts | 326° |
| 2026-05-04 09:27 | 41.44335 | 12.99603 | 21360 ft | 416 kts | 326° |
| 2026-05-04 09:27 | 41.46757 | 12.97646 | 21267 ft | 400 kts | 327° |
| 2026-05-04 09:27 | 41.49097 | 12.95781 | 21149 ft | 385 kts | 327° |
| 2026-05-04 09:28 | 41.50611 | 12.94578 | 21098 ft | 376 kts | 327° |
| 2026-05-04 09:28 | 41.52112 | 12.93387 | 21039 ft | 368 kts | 327° |
| 2026-05-04 09:28 | 41.54263 | 12.91636 | 20955 ft | 354 kts | 322° |
| 2026-05-04 09:28 | 41.56107 | 12.89569 | 20882 ft | 341 kts | 314° |
| 2026-05-04 09:29 | 41.57730 | 12.87487 | 20700 ft | 333 kts | 313° |
| 2026-05-04 09:29 | 41.59423 | 12.85282 | 20362 ft | 331 kts | 313° |
| 2026-05-04 09:29 | 41.61082 | 12.83145 | 19973 ft | 332 kts | 314° |
| 2026-05-04 09:29 | 41.62760 | 12.81021 | 19616 ft | 331 kts | 314° |
| 2026-05-04 09:30 | 41.64441 | 12.78915 | 19304 ft | 330 kts | 314° |
| 2026-05-04 09:30 | 41.66108 | 12.76831 | 18975 ft | 328 kts | 314° |
| 2026-05-04 09:30 | 41.67777 | 12.74745 | 18641 ft | 327 kts | 314° |
| 2026-05-04 09:30 | 41.69432 | 12.72672 | 18319 ft | 326 kts | 314° |
| 2026-05-04 09:31 | 41.71083 | 12.70602 | 17971 ft | 325 kts | 314° |
| 2026-05-04 09:31 | 41.72724 | 12.68542 | 17590 ft | 324 kts | 314° |
| 2026-05-04 09:31 | 41.74347 | 12.66504 | 17238 ft | 323 kts | 314° |
| 2026-05-04 09:31 | 41.75978 | 12.64453 | 16872 ft | 322 kts | 314° |
| 2026-05-04 09:32 | 41.77612 | 12.62397 | 16537 ft | 321 kts | 314° |
| 2026-05-04 09:32 | 41.79232 | 12.60358 | 16201 ft | 320 kts | 314° |
| 2026-05-04 09:34 | 41.90124 | 12.46143 | 14354 ft | 299 kts | 331° |
| 2026-05-04 09:34 | 41.92038 | 12.45155 | 14209 ft | 293 kts | 342° |
| 2026-05-04 09:34 | 41.93992 | 12.44355 | 13931 ft | 293 kts | 343° |
| 2026-05-04 09:34 | 41.95947 | 12.43575 | 13623 ft | 294 kts | 343° |
| 2026-05-04 09:35 | 41.97901 | 12.42788 | 13382 ft | 291 kts | 343° |
| 2026-05-04 09:35 | 41.99831 | 12.42002 | 13144 ft | 290 kts | 342° |
| 2026-05-04 09:35 | 42.01733 | 12.41221 | 12870 ft | 288 kts | 342° |
| 2026-05-04 09:35 | 42.03668 | 12.40420 | 12590 ft | 287 kts | 342° |
| 2026-05-04 09:37 | 42.16555 | 12.35041 | 11169 ft | 268 kts | 342° |
| 2026-05-04 09:37 | 42.18305 | 12.34306 | 10931 ft | 267 kts | 342° |
| 2026-05-04 09:38 | 42.20072 | 12.33561 | 10686 ft | 266 kts | 342° |
| 2026-05-04 09:38 | 42.21842 | 12.32816 | 10462 ft | 265 kts | 342° |
| 2026-05-04 09:38 | 42.23598 | 12.32076 | 10246 ft | 265 kts | 342° |
| 2026-05-04 09:38 | 42.25357 | 12.31333 | 10050 ft | 264 kts | 341° |
| 2026-05-04 09:39 | 42.27103 | 12.30594 | 9855 ft | 263 kts | 341° |
| 2026-05-04 09:39 | 42.28854 | 12.29859 | 9590 ft | 263 kts | 342° |
| 2026-05-04 09:39 | 42.30595 | 12.29127 | 9332 ft | 263 kts | 342° |
| 2026-05-04 09:39 | 42.32316 | 12.28402 | 9095 ft | 261 kts | 341° |
| 2026-05-04 09:40 | 42.34049 | 12.27673 | 8851 ft | 261 kts | 342° |
| 2026-05-04 09:40 | 42.35785 | 12.26940 | 8613 ft | 260 kts | 341° |
| 2026-05-04 09:40 | 42.37506 | 12.26206 | 8349 ft | 260 kts | 341° |
| 2026-05-04 09:40 | 42.39224 | 12.25466 | 8143 ft | 259 kts | 337° |
| 2026-05-04 09:41 | 42.40671 | 12.24087 | 7939 ft | 254 kts | 305° |
| 2026-05-04 09:42 | 42.37603 | 12.10385 | 7077 ft | 226 kts | 191° |
| 2026-05-04 09:43 | 42.36058 | 12.10326 | 6989 ft | 220 kts | 171° |
| 2026-05-04 09:43 | 42.34595 | 12.10849 | 6909 ft | 217 kts | 163° |
| 2026-05-04 09:43 | 42.33153 | 12.11481 | 6810 ft | 218 kts | 163° |
| 2026-05-04 09:43 | 42.31712 | 12.12110 | 6734 ft | 219 kts | 163° |
| 2026-05-04 09:44 | 42.30230 | 12.12756 | 6492 ft | 226 kts | 163° |
| 2026-05-04 09:44 | 42.28756 | 12.13391 | 6318 ft | 227 kts | 163° |
| 2026-05-04 09:44 | 42.27259 | 12.14022 | 6290 ft | 221 kts | 164° |
| 2026-05-04 09:46 | 42.17085 | 12.18341 | 5214 ft | 225 kts | 163° |
| 2026-05-04 09:46 | 42.15600 | 12.18967 | 5017 ft | 223 kts | 163° |
| 2026-05-04 09:46 | 42.14082 | 12.19293 | 4805 ft | 220 kts | 180° |
| 2026-05-04 09:47 | 42.12565 | 12.19239 | 4599 ft | 218 kts | 181° |
| 2026-05-04 09:47 | 42.11039 | 12.19194 | 4301 ft | 220 kts | 181° |
| 2026-05-04 09:49 | 42.00028 | 12.19632 | 3061 ft | 217 kts | 162° |
| 2026-05-04 09:49 | 41.98618 | 12.20247 | 2950 ft | 210 kts | 162° |
| 2026-05-04 09:49 | 41.97264 | 12.20829 | 2720 ft | 200 kts | 163° |
| 2026-05-04 09:51 | 41.90779 | 12.23553 | 1408 ft | 131 kts | 163° |
| 2026-05-04 09:51 | 41.89912 | 12.23917 | 1212 ft | 130 kts | 162° |
| 2026-05-04 09:51 | 41.89055 | 12.24278 | 1045 ft | 128 kts | 163° |
| 2026-05-04 09:51 | 41.88208 | 12.24633 | 801 ft | 128 kts | 164° |
| 2026-05-04 09:52 | 41.87397 | 12.24971 | 637 ft | 129 kts | 163° |
| 2026-05-04 09:52 | 41.86534 | 12.25336 | 460 ft | 131 kts | 164° |
| 2026-05-04 09:52 | 41.85666 | 12.25701 | 293 ft | 130 kts | 163° |
| 2026-05-04 09:52 | 41.84809 | 12.26060 | 110 ft | 128 kts | 164° |
| 2026-05-04 09:53 | 41.83979 | 12.26407 | 17 ft | 117 kts | 163° |
| 2026-05-04 09:53 | 41.83649 | 12.26537 | 15 ft | 33 kts | 160° |
| 2026-05-04 09:53 | 41.83482 | 12.26616 | 14 ft | 20 kts | 163° |
| 2026-05-04 09:53 | 41.83345 | 12.26653 | 16 ft | 13 kts | 172° |
| 2026-05-04 09:54 | 41.83235 | 12.26661 | 14 ft | 18 kts | 185° |
| 2026-05-04 09:54 | 41.83096 | 12.26626 | 14 ft | 22 kts | 191° |
| 2026-05-04 09:54 | 41.82940 | 12.26580 | 14 ft | 24 kts | 190° |
| 2026-05-04 09:54 | 41.82826 | 12.26577 | 14 ft | 25 kts | 170° |
| 2026-05-04 09:55 | 41.82680 | 12.26631 | 15 ft | 18 kts | 164° |
| 2026-05-04 09:55 | 41.82590 | 12.26666 | 14 ft | 11 kts | 163° |
| 2026-05-04 09:55 | 41.82521 | 12.26695 | 14 ft | 10 kts | 163° |
| 2026-05-04 09:55 | 41.82433 | 12.26732 | 14 ft | 10 kts | 161° |
| 2026-05-04 09:56 | 41.82358 | 12.26767 | 14 ft | 15 kts | 161° |
| 2026-05-04 09:56 | 41.82277 | 12.26802 | 15 ft | 21 kts | 163° |
| 2026-05-04 09:56 | 41.82040 | 12.26898 | 14 ft | 32 kts | 163° |
| 2026-05-04 09:56 | 41.81888 | 12.26962 | 15 ft | 36 kts | 162° |
| 2026-05-04 09:57 | 41.81646 | 12.27064 | 14 ft | 37 kts | 162° |
| 2026-05-04 09:57 | 41.81408 | 12.27163 | 14 ft | 35 kts | 163° |
| 2026-05-04 09:57 | 41.81187 | 12.27254 | 14 ft | 31 kts | 163° |
| 2026-05-04 09:57 | 41.80921 | 12.27346 | 15 ft | 29 kts | 180° |
| 2026-05-04 09:58 | 41.80732 | 12.27305 | 16 ft | 27 kts | 199° |
| 2026-05-04 09:58 | 41.80647 | 12.27195 | 14 ft | 26 kts | 248° |
| 2026-05-04 09:58 | 41.80586 | 12.26983 | 16 ft | 24 kts | 250° |
| 2026-05-04 10:00 | 41.80129 | 12.26334 | 14 ft | 10 kts | 237° |
| 2026-05-04 10:00 | 41.80132 | 12.26248 | 15 ft | 9 kts | 290° |